Stations météo

réclame
Mon MeteoGroup
Mende, France (7554): Température de l'air & dewpoint: 13.11.2017 20:00:00 - 19.11.2017 20:00:00 (CET)Mende, France (7554): Température de l'air 5cm: 13.11.2017 20:00:00 - 19.11.2017 20:00:00 (CET)Mende, France (7554): Température de l'air -20cm & Température de l'air -100cm: 13.11.2017 20:00:00 - 19.11.2017 20:00:00 (CET)Mende, France (7554): Vitesse du vent & gusts: 13.11.2017 20:00:00 - 19.11.2017 20:00:00 (CET)Mende, France (7554): Direction du vent: 13.11.2017 20:00:00 - 19.11.2017 20:00:00 (CET)Mende, France (7554): visibility: 13.11.2017 20:00:00 - 19.11.2017 20:00:00 (CET)Mende, France (7554): Ensoleillement: 13.11.2017 20:00:00 - 19.11.2017 20:00:00 (CET)Mende, France (7554): Quantités de précipitations: 13.11.2017 20:00:00 - 19.11.2017 20:00:00 (CET)
Date & Time tt [°C] td [°C] tt 5cm [°C] tt -20cm [°C] tt -100cm [°C] ff [km/h] ff [knt] fx [km/h] fx [knt] dd vv [km] sd [min] rr [mm]
19.11.2017 20:00:00 5,1 2,6 2,7 6,3 10,0 2 1 19 10 WSW 20 0 0,0
19.11.2017 19:00:00 5,8 2,8 3,8 6,2 10,0 4 2 22 12 WSW 20 0 0,0
19.11.2017 18:00:00 6,4 3,0 5,6 6,1 10,0 9 5 29 16 N 20 0 0,0
19.11.2017 17:00:00 7,0 2,7 6,2 6,0 10,0 14 7 29 16 N 20 1 0,0
19.11.2017 16:00:00 7,2 2,5 7,0 5,9 10,0 15 8 45 24 N 20 10 0,0
19.11.2017 15:00:00 8,0 2,4 8,5 5,9 10,0 21 11 39 21 N 20 35 0,0
19.11.2017 14:00:00 9,2 -0,2 12,4 5,9 10,0 18 10 38 20 N 20 60 0,0
19.11.2017 13:00:00 8,7 -0,6 12,7 5,9 10,0 23 12 48 26 NNW 20 60 0,0
19.11.2017 12:00:00 8,0 2,0 12,1 6,0 10,0 17 9 32 18 NNW 20 60 0,0
19.11.2017 11:00:00 5,9 0,4 8,5 6,1 10,0 8 4 31 17 WNW 20 60 0,0
19.11.2017 10:00:00 3,8 -0,2 1,6 6,2 10,1 10 5 24 13 NNW 20 60 0,0
19.11.2017 09:00:00 -0,7 -5,1 -3,9 6,4 10,0 9 5 12 6 SSE 20 46 0,0
19.11.2017 08:00:00 -2,7 -5,5 -6,6 6,5 10,0 5 3 11 6 SSE 12 0 0,0
19.11.2017 07:00:00 -3,2 -6,0 -5,1 6,6 10,1 4 2 12 6 W 20 0 0,0
19.11.2017 06:00:00 -2,7 -5,5 -6,7 6,7 10,1 3 2 8 4 ESE 20 0 0,0
19.11.2017 05:00:00 -3,0 -5,5 -6,4 6,7 10,1 0 0 10 5 N 20 0 0,0
19.11.2017 04:00:00 -2,4 -5,4 -4,6 6,8 10,1 7 4 16 9 ESE 20 0 0,0
19.11.2017 03:00:00 -1,7 -4,9 -3,4 6,9 10,1 13 7 20 11 E 20 0 0,0
19.11.2017 02:00:00 -2,1 -5,4 -5,4 7,0 10,1 13 7 21 12 E 20 0 0,0
19.11.2017 01:00:00 -2,3 -5,0 -6,9 7,0 10,1 8 4 10 6 NE 20 0 0,0
19.11.2017 00:00:00 -2,0 -4,3 -7,1 7,0 10,1 0 0 9 5 N 20 0 0,0
18.11.2017 23:00:00 -1,4 -3,8 -5,0 7,0 10,1 4 2 11 6 E 14 0 0,0
18.11.2017 22:00:00 -0,8 -3,7 -4,8 7,0 10,1 6 3 11 6 E 20 0 0,0
18.11.2017 21:00:00 -0,4 -3,6 -4,4 7,0 10,1 5 3 11 6 NE 20 0 0,0
18.11.2017 20:00:00 -0,4 -3,9 -3,9 6,9 10,1 7 4 11 6 N 20 0 0,0
18.11.2017 19:00:00 1,0 -3,1 -3,1 6,8 10,1 6 3 15 8 NNE 20 0 0,0
18.11.2017 18:00:00 2,2 -2,9 -1,4 6,7 10,1 5 3 25 14 NE 20 1 0,0
18.11.2017 17:00:00 4,6 -3,4 3,6 6,6 10,2 15 8 27 15 N 20 58 0,0
18.11.2017 16:00:00 6,7 -3,0 6,9 6,5 10,1 17 9 29 16 N 20 60 0,0
18.11.2017 15:00:00 8,2 -2,2 11,1 6,5 10,1 16 9 28 15 N 20 60 0,0
18.11.2017 14:00:00 9,1 -2,2 13,3 6,5 10,1 7 4 17 9 NNW 20 60 0,0
18.11.2017 13:00:00 7,8 -1,5 11,5 6,5 10,2 8 4 21 11 NNE 20 60 0,0
18.11.2017 12:00:00 7,4 -0,8 10,5 6,6 10,2 7 4 16 9 E 20 60 0,0
18.11.2017 11:00:00 5,7 -1,0 8,9 6,7 10,2 7 4 17 9 ENE 20 60 0,0
18.11.2017 10:00:00 4,3 -1,3 0,4 6,7 10,2 6 4 17 9 ENE 20 52 0,0
18.11.2017 09:00:00 1,7 -1,4 -0,3 6,8 10,3 4 2 22 12 ESE 20 9 0,0
18.11.2017 08:00:00 1,2 -1,4 -1,9 6,9 10,2 6 3 15 8 ESE 20 0 0,0
18.11.2017 07:00:00 1,8 -1,3 -1,8 6,9 10,2 0 0 16 9 N 20 0 0,0
18.11.2017 06:00:00 1,9 -1,2 -1,5 7,0 10,2 5 3 27 15 E 20 0 0,0
18.11.2017 05:00:00 2,0 -0,8 -0,9 7,0 10,2 8 4 22 12 ENE 20 0 0,0
18.11.2017 04:00:00 2,8 -0,3 0,6 7,1 10,3 4 2 34 18 ENE 20 0 0,0
18.11.2017 03:00:00 3,0 -0,3 1,4 7,1 10,3 13 7 36 19 NNE 20 0 0,0
18.11.2017 02:00:00 3,5 -0,2 1,4 7,1 10,3 8 4 30 16 ENE 20 0 0,0
18.11.2017 01:00:00 3,1 0,3 1,1 7,1 10,3 11 6 27 15 SE 20 0 0,0
18.11.2017 00:00:00 3,3 0,5 0,7 7,1 10,3 12 6 36 19 NE 20 0 0,0
17.11.2017 23:00:00 2,9 0,3 -0,2 7,0 10,3 3 2 18 10 NNE 20 0 0,0
17.11.2017 22:00:00 3,6 0,6 0,4 7,0 10,3 10 5 21 12 NNE 20 0 0,0
17.11.2017 21:00:00 2,7 -0,1 -0,8 6,9 10,3 3 2 11 6 N 20 0 0,0
17.11.2017 20:00:00 3,4 -0,1 1,0 6,8 10,3 4 2 23 12 NW 20 0 0,0
17.11.2017 19:00:00 4,4 0,4 2,9 6,7 10,3 10 5 27 14 N 20 0 0,0
17.11.2017 18:00:00 5,2 0,2 3,7 6,6 10,3 10 5 27 14 NNE 20 1 0,0
17.11.2017 17:00:00 7,9 0,6 6,4 6,5 10,3 10 5 31 17 NNW 20 60 0,0
17.11.2017 16:00:00 9,7 0,6 10,3 6,4 10,4 13 7 34 18 NNE 20 60 0,0
17.11.2017 15:00:00 11,2 0,3 14,3 6,3 10,4 16 9 35 19 N 20 60 0,0
17.11.2017 14:00:00 10,9 0,9 15,1 6,3 10,4 14 7 30 16 NE 20 60 0,0
17.11.2017 13:00:00 10,6 -0,9 14,7 6,3 10,4 11 6 33 18 ENE 20 60 0,0
17.11.2017 12:00:00 11,5 0,0 15,1 6,3 10,4 6 3 10 6 WSW 20 60 0,0
17.11.2017 11:00:00 9,6 -0,9 12,9 6,4 10,4 3 1 8 5 S 20 60 0,0
17.11.2017 10:00:00 6,3 -2,1 2,5 6,4 10,4 4 2 8 4 W 20 52 0,0
17.11.2017 09:00:00 4,0 -2,6 0,3 6,5 10,4 4 2 14 7 N 20 17 0,0
17.11.2017 08:00:00 3,1 -2,6 -0,7 6,5 10,4 5 3 11 6 E 20 0 0,0
17.11.2017 07:00:00 3,6 -2,8 0,5 6,6 10,4 7 4 17 9 SE 20 0 0,0
17.11.2017 06:00:00 3,1 -2,8 1,1 6,7 10,4 7 4 16 8 SE 20 0 0,0
17.11.2017 05:00:00 3,4 -2,6 1,3 6,7 10,4 4 2 16 9 S 20 0 0,0
17.11.2017 04:00:00 4,0 -2,4 -1,5 6,7 10,4 6 4 10 5 ESE 20 0 0,0
17.11.2017 03:00:00 3,3 -2,7 -0,4 6,7 10,4 3 1 31 17 W 20 0 0,0
17.11.2017 02:00:00 5,0 -2,1 0,5 6,7 10,4 5 3 16 9 E 20 0 0,0
17.11.2017 01:00:00 3,1 -3,1 -0,4 6,8 10,5 5 3 10 5 SW 20 0 0,0
17.11.2017 00:00:00 2,7 -3,2 -0,4 6,8 10,5 4 2 10 5 W 20 0 0,0
16.11.2017 23:00:00 3,4 -3,4 0,5 6,7 10,5 4 2 18 10 NNE 20 0 0,0
16.11.2017 22:00:00 3,9 -3,2 -1,5 6,7 10,5 4 2 16 8 ENE 20 0 0,0
16.11.2017 21:00:00 4,0 -4,0 -0,2 6,6 10,5 4 2 10 5 SSE 20 0 0,0
16.11.2017 20:00:00 4,2 -4,8 0,2 6,5 10,5 4 2 17 9 E 16 0 0,0
16.11.2017 19:00:00 4,8 -5,9 0,7 6,3 10,5 5 3 22 12 ENE 20 0 0,0
16.11.2017 18:00:00 6,2 -6,8 2,7 6,2 10,5 13 7 26 14 N 20 0 0,0
16.11.2017 17:00:00 8,2 -8,0 7,0 6,1 10,6 14 8 34 18 ENE 20 7 0,0
16.11.2017 16:00:00 10,1 -5,5 11,1 6,0 10,6 14 8 26 14 ENE 20 60 0,0
16.11.2017 15:00:00 11,6 -3,0 14,6 6,0 10,5 18 10 30 16 N 20 60 0,0
16.11.2017 14:00:00 12,3 -3,9 14,7 6,0 10,6 3 1 10 6 WSW 20 60 0,0
16.11.2017 13:00:00 11,3 -3,6 14,0 6,0 10,6 4 2 10 5 S 20 60 0,0
16.11.2017 12:00:00 9,4 -4,9 12,0 6,1 10,5 4 2 9 5 ESE 20 60 0,0
16.11.2017 11:00:00 6,8 -5,6 10,6 6,2 10,6 6 3 9 5 SE 20 60 0,0
16.11.2017 10:00:00 4,8 -5,0 4,7 6,3 10,6 3 2 8 4 S 20 60 0,0
16.11.2017 09:00:00 1,1 -5,6 -2,6 6,3 10,6 7 4 13 7 ESE 20 60 0,0
16.11.2017 08:00:00 -0,6 -6,8 -3,0 6,4 10,6 9 5 16 9 E 20 0 0,0
16.11.2017 07:00:00 -1,1 -6,1 -3,1 6,5 10,6 7 4 16 8 E 20 0 0,0
16.11.2017 06:00:00 -1,1 -6,1 -3,2 6,6 10,6 7 4 15 8 E 20 0 0,0
16.11.2017 05:00:00 -0,9 -6,1 -4,5 6,6 10,6 11 6 14 7 ENE 20 0 0,0
16.11.2017 04:00:00 -0,7 -6,5 -3,2 6,7 10,6 8 4 12 6 ENE 20 0 0,0
16.11.2017 03:00:00 -0,3 -6,3 -2,6 6,8 10,6 7 4 13 7 ENE 20 0 0,0
16.11.2017 02:00:00 -0,5 -6,3 -3,7 6,8 10,7 6 4 12 7 E 20 0 0,0
16.11.2017 01:00:00 -0,3 -5,7 -3,7 6,8 10,6 5 3 13 7 E 20 0 0,0
16.11.2017 00:00:00 0,1 -5,3 -3,6 6,8 10,7 12 6 14 8 ENE 20 0 0,0
15.11.2017 23:00:00 -0,2 -4,6 -4,1 6,8 10,7 7 4 18 10 NE 20 0 0,0
15.11.2017 22:00:00 0,7 -3,6 -1,3 6,8 10,7 11 6 22 12 E 19 0 0,0
15.11.2017 21:00:00 0,7 -3,2 -1,7 6,7 10,7 6 4 14 8 E 20 0 0,0
15.11.2017 20:00:00 1,3 -3,2 -0,4 6,6 10,7 7 4 18 10 E 19 0 0,0
15.11.2017 19:00:00 2,9 -4,1 1,3 6,5 10,7 12 7 29 16 E 20 0 0,0
15.11.2017 18:00:00 3,3 -4,4 1,9 6,4 10,7 5 3 41 22 E 20 0 0,0
15.11.2017 17:00:00 5,4 -5,9 4,4 6,3 10,8 13 7 31 17 E 20 17 0,0
15.11.2017 16:00:00 7,8 -6,0 8,3 6,2 10,7 10 5 36 20 E 20 60 0,0
15.11.2017 15:00:00 8,9 -5,4 11,0 6,1 10,7 10 6 27 15 ESE 20 60 0,0
15.11.2017 14:00:00 9,0 -5,7 12,6 6,1 10,7 13 7 39 21 E 20 60 0,0
15.11.2017 13:00:00 9,0 -6,1 12,9 6,2 10,7 9 5 32 18 ENE 20 60 0,0
15.11.2017 12:00:00 8,5 -6,9 12,0 6,2 10,8 9 5 24 13 ENE 20 60 0,0
15.11.2017 11:00:00 7,1 -8,1 7,9 6,3 10,7 5 3 16 9 S 20 60 0,0
15.11.2017 10:00:00 4,3 -8,8 7,4 6,4 10,8 6 3 12 7 ESE 20 60 0,0
15.11.2017 09:00:00 2,0 -9,9 -1,3 6,5 10,8 4 2 14 8 SW 20 60 0,0
15.11.2017 08:00:00 1,2 -9,7 -0,9 6,5 10,8 15 8 39 21 NNE 20 0 0,0
15.11.2017 07:00:00 1,8 -11,0 -3,1 6,6 10,8 16 8 27 15 E 20 0 0,0
15.11.2017 06:00:00 -0,2 -8,9 -2,8 6,7 10,8 4 2 20 11 W 20 0 0,0
15.11.2017 05:00:00 1,2 -10,9 -1,8 6,8 10,8 6 3 28 15 S 20 0 0,0
15.11.2017 04:00:00 1,2 -9,2 -2,6 6,8 10,8 16 9 27 15 NNE 20 0 0,0
15.11.2017 03:00:00 0,9 -8,6 -0,7 6,9 10,8 12 6 37 20 NNE 20 0 0,0
15.11.2017 02:00:00 0,9 -7,9 -2,1 6,9 10,8 18 10 32 17 N 20 0 0,0
15.11.2017 01:00:00 0,5 -7,7 -1,8 7,0 10,8 7 4 38 21 NE 20 0 0,0
15.11.2017 00:00:00 0,8 -6,1 -0,6 7,0 10,8 18 10 41 22 NNE 20 0 0,0
14.11.2017 23:00:00 0,7 -5,5 -2,0 7,0 10,8 18 10 35 19 NNE 20 0 0,0
14.11.2017 22:00:00 0,5 -4,9 -0,9 7,0 10,8 9 5 42 23 E 20 0 0,0
14.11.2017 21:00:00 0,5 -4,7 -1,4 7,0 10,9 9 5 27 15 E 20 0 0,0
14.11.2017 20:00:00 0,7 -5,5 -2,2 6,9 10,8 5 3 28 15 NE 20 0 0,0
14.11.2017 19:00:00 0,1 -4,2 -2,1 6,9 10,8 7 4 35 19 SW 20 0 0,0
14.11.2017 18:00:00 0,6 -3,7 -1,1 6,8 10,9 11 6 37 20 NNW 20 0 0,0
14.11.2017 17:00:00 1,7 -3,2 0,9 6,7 10,8 13 7 38 20 N 20 49 0,0
14.11.2017 16:00:00 3,1 -2,8 4,2 6,7 10,9 20 11 42 23 N 20 60 0,0
14.11.2017 15:00:00 3,7 -2,7 7,6 6,7 10,9 14 8 34 19 NE 20 60 0,0
14.11.2017 14:00:00 3,8 -2,6 6,4 6,7 10,9 18 10 54 29 NNE 20 60 0,0
14.11.2017 13:00:00 3,6 -2,6 5,4 6,7 10,8 19 10 47 25 N 20 47 0,0
14.11.2017 12:00:00 3,1 -3,1 5,6 6,7 11,0 12 7 53 29 NE 20 53 0,0
14.11.2017 11:00:00 2,4 -2,9 3,6 6,8 11,0 27 15 54 29 NNE 20 41 0,0
14.11.2017 10:00:00 1,6 -3,1 1,0 6,8 10,9 14 8 34 18 NE 20 7 0,0
14.11.2017 09:00:00 0,9 -3,0 0,1 6,8 10,9 10 5 31 17 NNE 20 0 0,0
14.11.2017 08:00:00 0,4 -2,7 -0,5 6,9 10,9 13 7 49 27 N 11 0 0,0
14.11.2017 07:00:00 -0,1 -2,5 -0,7 7,0 10,9 4 2 23 12 ESE 10 0 0,0
14.11.2017 06:00:00 -0,2 -1,6 -0,5 7,0 10,9 4 2 41 22 SSE 1,6 0 0,2
14.11.2017 05:00:00 0,2 -1,9 -0,5 7,1 10,9 4 2 36 20 NE 2,2 0 0,0
14.11.2017 04:00:00 0,7 -2,5 0,2 7,1 10,9 7 4 42 23 NE 4,2 0 0,0
14.11.2017 03:00:00 0,7 -2,9 0,2 7,2 10,9 5 3 39 21 NNE 6 0 0,0
14.11.2017 02:00:00 0,6 -2,1 0,2 7,2 10,9 18 10 36 19 NNW 4,5 0 0,0
14.11.2017 01:00:00 0,6 -2,6 -0,1 7,3 10,9 9 5 40 21 NNW 19 0 0,2
14.11.2017 00:00:00 0,4 -2,0 -0,3 7,4 10,9 10 5 58 31 N 2,0 0 0,0
13.11.2017 23:00:00 0,4 -2,0 -0,2 7,4 10,9 5 3 59 32 N 2,3 0 0,0
13.11.2017 22:00:00 1,1 -3,2 0,4 7,4 10,9 29 16 56 30 N 20 0 0,0
13.11.2017 21:00:00 0,9 -2,9 0,4 7,5 10,9 18 10 57 31 N 18 0 0,0
13.11.2017 20:00:00 1,0 -2,8 -0,1 7,5 10,9 28 15 56 30 N 20 0 0,0

tt = Température de l'air
td = dewpoint
tt 5cm = Température de l'air 5cm
tt -20cm = Température de l'air -20cm
tt -100cm = Température de l'air -100cm
ff = Vitesse du vent
fx = gusts
dd = Direction du vent
vv = visibility
sd = Ensoleillement
rr = Quantités de précipitations

stations d'obs. à proximité